Terminal Aerodrome Forecast
Issued by NWS

Home | Current Version | Previous Version | Text Only | Print | Product List | Glossary On
Versions: 1 2 3 4 5 6 7 8 9 10 11 12 13 14 15 16 17 18 19 20 21 22
000
FTUS44 KSJT 271700
TAFSOA
TAF
KSOA 271729Z 2718/2818 07009KT P6SM OVC020
     FM271900 08009KT 5SM BR OVC020
     FM280200 09008KT 4SM BR OVC007
     FM280600 13009KT 3SM BR OVC004=

USA.gov is the U.S. government's official web portal to all federal, state and local government web resources and services.